KBIS/BIS METAR and TAF weather

Enter ICAO airport designator
Station Type Date Time Source
KBIS METAR 2018/10/22 15:52 UTC NOAA

KBIS 221552Z 32009KT 10SM CLR 08/M02 A3024 RMK AO2 SLP255 T00831022


Station Type Date Time Source
KBIS Decoded METAR 2018/10/22 15:52 UTC NOAA

BISMARCK MUNICIPAL AIRPORT, ND, United States (KBIS) 46-47N 100-45W 503M
Oct 22, 2018 - 11:52 AM EDT / 2018.10.22 1552 UTC
Wind: from the NW (320 degrees) at 10 MPH (9 KT):0
Visibility: 10 mile(s):0
Sky conditions: clear
Temperature: 46.9 F (8.3 C)
Dew Point: 28.0 F (-2.2 C)
Relative Humidity: 47%
Pressure (altimeter): 30.24 in. Hg (1024 hPa)
ob: KBIS 221552Z 32009KT 10SM CLR 08/M02 A3024 RMK AO2 SLP255 T00831022
cycle: 16

Station Type Date Time Source
KBIS TAF 2018/10/22 12:24 UTC NOAA

TAF KBIS 221121Z 2212/2312 28005KT P6SM SKC
FM221500 33008KT P6SM SKC
FM222300 36008KT P6SM SKC
FM230200 VRB04KT P6SM SKC


Example: see airport list